sensor_id;sensor_type;location;lat;lon;timestamp;pressure;altitude;pressure_sealevel;temperature;humidity
21960;BME280;11144;43.030;25.108;2023-02-12T00:01:07;100296.13;;;-2.66;100.00
21960;BME280;11144;43.030;25.108;2023-02-12T00:02:42;100301.25;;;-2.68;100.00
21960;BME280;11144;43.030;25.108;2023-02-12T00:04:17;100297.88;;;-2.67;100.00
21960;BME280;11144;43.030;25.108;2023-02-12T00:05:50;100295.34;;;-2.65;100.00
21960;BME280;11144;43.030;25.108;2023-02-12T00:07:22;100289.91;;;-2.73;100.00
21960;BME280;11144;43.030;25.108;2023-02-12T00:08:56;100297.81;;;-2.68;100.00
21960;BME280;11144;43.030;25.108;2023-02-12T00:10:29;100303.84;;;-2.68;100.00
21960;BME280;11144;43.030;25.108;2023-02-12T00:12:03;100276.75;;;-2.79;100.00
21960;BME280;11144;43.030;25.108;2023-02-12T00:13:36;100283.22;;;-2.93;100.00
21960;BME280;11144;43.030;25.108;2023-02-12T00:15:09;100296.94;;;-2.94;100.00
21960;BME280;11144;43.030;25.108;2023-02-12T00:16:42;100305.38;;;-2.99;100.00
21960;BME280;11144;43.030;25.108;2023-02-12T00:18:17;100317.56;;;-2.97;100.00
21960;BME280;11144;43.030;25.108;2023-02-12T00:19:49;100309.66;;;-3.01;100.00
21960;BME280;11144;43.030;25.108;2023-02-12T00:21:23;100303.06;;;-3.17;100.00
21960;BME280;11144;43.030;25.108;2023-02-12T00:22:55;100309.81;;;-3.22;100.00
21960;BME280;11144;43.030;25.108;2023-02-12T00:24:28;100306.09;;;-3.30;100.00
21960;BME280;11144;43.030;25.108;2023-02-12T00:26:04;100305.09;;;-3.33;100.00
21960;BME280;11144;43.030;25.108;2023-02-12T00:27:37;100309.34;;;-3.34;100.00
21960;BME280;11144;43.030;25.108;2023-02-12T00:29:11;100305.84;;;-3.36;100.00
21960;BME280;11144;43.030;25.108;2023-02-12T00:30:44;100306.09;;;-3.30;100.00
21960;BME280;11144;43.030;25.108;2023-02-12T00:32:17;100304.53;;;-3.25;100.00
21960;BME280;11144;43.030;25.108;2023-02-12T00:33:52;100301.22;;;-3.21;100.00
21960;BME280;11144;43.030;25.108;2023-02-12T00:35:24;100301.31;;;-3.18;100.00
21960;BME280;11144;43.030;25.108;2023-02-12T00:36:58;100303.19;;;-3.14;100.00
21960;BME280;11144;43.030;25.108;2023-02-12T00:38:31;100303.28;;;-3.11;100.00
21960;BME280;11144;43.030;25.108;2023-02-12T00:40:05;100292.84;;;-3.14;100.00
21960;BME280;11144;43.030;25.108;2023-02-12T00:41:39;100299.09;;;-3.07;100.00
21960;BME280;11144;43.030;25.108;2023-02-12T00:43:11;100299.97;;;-3.07;100.00
21960;BME280;11144;43.030;25.108;2023-02-12T00:44:44;100300.09;;;-3.04;100.00
21960;BME280;11144;43.030;25.108;2023-02-12T00:46:18;100294.91;;;-3.04;100.00
21960;BME280;11144;43.030;25.108;2023-02-12T00:47:51;100289.75;;;-3.04;100.00
21960;BME280;11144;43.030;25.108;2023-02-12T00:49:27;100294.97;;;-3.02;100.00
21960;BME280;11144;43.030;25.108;2023-02-12T00:51:05;100288.06;;;-3.02;100.00
21960;BME280;11144;43.030;25.108;2023-02-12T00:52:39;100286.44;;;-3.00;100.00
21960;BME280;11144;43.030;25.108;2023-02-12T00:54:12;100289.63;;;-3.07;100.00
21960;BME280;11144;43.030;25.108;2023-02-12T00:55:45;100285.31;;;-3.06;100.00
21960;BME280;11144;43.030;25.108;2023-02-12T00:57:18;100293.06;;;-3.08;100.00
21960;BME280;11144;43.030;25.108;2023-02-12T00:58:53;100288.69;;;-3.09;100.00
21960;BME280;11144;43.030;25.108;2023-02-12T01:00:27;100284.47;;;-3.07;100.00
21960;BME280;11144;43.030;25.108;2023-02-12T01:02:01;100282.72;;;-3.08;100.00
21960;BME280;11144;43.030;25.108;2023-02-12T01:03:34;100284.47;;;-3.07;100.00
21960;BME280;11144;43.030;25.108;2023-02-12T01:05:09;100281.59;;;-3.14;100.00
21960;BME280;11144;43.030;25.108;2023-02-12T01:06:42;100273.91;;;-3.13;100.00
21960;BME280;11144;43.030;25.108;2023-02-12T01:08:16;100278.16;;;-3.15;100.00
21960;BME280;11144;43.030;25.108;2023-02-12T01:09:49;100282.59;;;-3.11;100.00
21960;BME280;11144;43.030;25.108;2023-02-12T01:11:22;100263.56;;;-3.13;100.00
21960;BME280;11144;43.030;25.108;2023-02-12T01:12:56;100284.25;;;-3.13;100.00
21960;BME280;11144;43.030;25.108;2023-02-12T01:14:29;100272.28;;;-3.11;100.00
21960;BME280;11144;43.030;25.108;2023-02-12T01:16:06;100265.44;;;-3.09;100.00
21960;BME280;11144;43.030;25.108;2023-02-12T01:17:42;100277.53;;;-3.08;100.00
21960;BME280;11144;43.030;25.108;2023-02-12T01:19:15;100270.59;;;-3.09;100.00
21960;BME280;11144;43.030;25.108;2023-02-12T01:20:50;100273.81;;;-3.16;100.00
21960;BME280;11144;43.030;25.108;2023-02-12T01:22:23;100269.53;;;-3.15;100.00
21960;BME280;11144;43.030;25.108;2023-02-12T01:23:57;100269.56;;;-3.14;100.00
21960;BME280;11144;43.030;25.108;2023-02-12T01:25:30;100278.97;;;-3.16;100.00
21960;BME280;11144;43.030;25.108;2023-02-12T01:27:03;100267.72;;;-3.18;100.00
21960;BME280;11144;43.030;25.108;2023-02-12T01:28:36;100282.19;;;-3.23;100.00
21960;BME280;11144;43.030;25.108;2023-02-12T01:30:14;100269.97;;;-3.27;100.00
21960;BME280;11144;43.030;25.108;2023-02-12T01:31:47;100263.84;;;-3.30;100.00
21960;BME280;11144;43.030;25.108;2023-02-12T01:33:21;100259.34;;;-3.36;100.00
21960;BME280;11144;43.030;25.108;2023-02-12T01:34:54;100268.78;;;-3.36;100.00
21960;BME280;11144;43.030;25.108;2023-02-12T01:36:30;100252.44;;;-3.37;100.00
21960;BME280;11144;43.030;25.108;2023-02-12T01:38:03;100260.97;;;-3.38;100.00
21960;BME280;11144;43.030;25.108;2023-02-12T01:39:36;100250.66;;;-3.38;100.00
21960;BME280;11144;43.030;25.108;2023-02-12T01:41:10;100245.47;;;-3.38;100.00
21960;BME280;11144;43.030;25.108;2023-02-12T01:42:43;100248.91;;;-3.39;100.00
21960;BME280;11144;43.030;25.108;2023-02-12T01:44:19;100240.22;;;-3.41;100.00
21960;BME280;11144;43.030;25.108;2023-02-12T01:45:53;100238.56;;;-3.39;100.00
21960;BME280;11144;43.030;25.108;2023-02-12T01:47:26;100236.03;;;-3.37;100.00
21960;BME280;11144;43.030;25.108;2023-02-12T01:49:00;100222.94;;;-3.42;100.00
21960;BME280;11144;43.030;25.108;2023-02-12T01:50:33;100226.59;;;-3.37;100.00
21960;BME280;11144;43.030;25.108;2023-02-12T01:52:13;100238.66;;;-3.36;100.00
21960;BME280;11144;43.030;25.108;2023-02-12T01:53:50;100240.22;;;-3.41;100.00
21960;BME280;11144;43.030;25.108;2023-02-12T01:55:25;100244.72;;;-3.35;100.00
21960;BME280;11144;43.030;25.108;2023-02-12T01:56:59;100231.84;;;-3.34;100.00
21960;BME280;11144;43.030;25.108;2023-02-12T01:58:35;100237.22;;;-3.28;100.00
21960;BME280;11144;43.030;25.108;2023-02-12T02:00:12;100230.41;;;-3.26;100.00
21960;BME280;11144;43.030;25.108;2023-02-12T02:01:45;100228.84;;;-3.21;100.00
21960;BME280;11144;43.030;25.108;2023-02-12T02:03:19;100243.47;;;-3.21;100.00
21960;BME280;11144;43.030;25.108;2023-02-12T02:04:55;100241.88;;;-3.18;100.00
21960;BME280;11144;43.030;25.108;2023-02-12T02:06:31;100239.38;;;-3.15;100.00
21960;BME280;11144;43.030;25.108;2023-02-12T02:08:07;100234.41;;;-3.09;100.00
21960;BME280;11144;43.030;25.108;2023-02-12T02:09:40;100229.34;;;-3.06;100.00
21960;BME280;11144;43.030;25.108;2023-02-12T02:11:13;100222.41;;;-3.07;100.00
21960;BME280;11144;43.030;25.108;2023-02-12T02:13:04;100237.34;;;-2.98;100.00
21960;BME280;11144;43.030;25.108;2023-02-12T02:15:10;100228.91;;;-2.93;100.00
21960;BME280;11144;43.030;25.108;2023-02-12T02:16:49;100232.47;;;-2.89;100.00
21960;BME280;11144;43.030;25.108;2023-02-12T02:18:31;100239.31;;;-2.90;100.00
21960;BME280;11144;43.030;25.108;2023-02-12T02:20:29;100238.41;;;-2.92;100.00
21960;BME280;11144;43.030;25.108;2023-02-12T02:22:16;100221.84;;;-2.98;100.00
21960;BME280;11144;43.030;25.108;2023-02-12T02:24:09;100236.75;;;-2.90;100.00
21960;BME280;11144;43.030;25.108;2023-02-12T02:28:01;100219.09;;;-3.03;100.00
21960;BME280;11144;43.030;25.108;2023-02-12T02:29:51;100220.91;;;-3.00;100.00
21960;BME280;11144;43.030;25.108;2023-02-12T02:31:32;100214.75;;;-3.04;100.00
21960;BME280;11144;43.030;25.108;2023-02-12T02:33:15;100232.88;;;-3.04;100.00
21960;BME280;11144;43.030;25.108;2023-02-12T02:34:53;100220.06;;;-2.99;100.00
21960;BME280;11144;43.030;25.108;2023-02-12T02:36:33;100217.56;;;-2.96;100.00
21960;BME280;11144;43.030;25.108;2023-02-12T02:38:32;100227.06;;;-2.97;100.00
21960;BME280;11144;43.030;25.108;2023-02-12T02:40:12;100229.66;;;-2.97;100.00
21960;BME280;11144;43.030;25.108;2023-02-12T02:41:49;100217.53;;;-2.98;100.00
21960;BME280;11144;43.030;25.108;2023-02-12T02:43:29;100224.84;;;-2.85;100.00
21960;BME280;11144;43.030;25.108;2023-02-12T02:45:07;100222.13;;;-2.89;100.00
21960;BME280;11144;43.030;25.108;2023-02-12T02:46:46;100225.88;;;-2.80;100.00
21960;BME280;11144;43.030;25.108;2023-02-12T02:48:23;100225.13;;;-2.76;100.00
21960;BME280;11144;43.030;25.108;2023-02-12T02:50:01;100232.25;;;-2.69;100.00
21960;BME280;11144;43.030;25.108;2023-02-12T02:51:40;100231.47;;;-2.66;100.00
21960;BME280;11144;43.030;25.108;2023-02-12T02:53:18;100227.66;;;-2.77;100.00
21960;BME280;11144;43.030;25.108;2023-02-12T02:54:56;100240.84;;;-2.70;100.00
21960;BME280;11144;43.030;25.108;2023-02-12T02:56:34;100240.06;;;-2.67;100.00
21960;BME280;11144;43.030;25.108;2023-02-12T02:58:11;100228.81;;;-2.68;100.00
21960;BME280;11144;43.030;25.108;2023-02-12T02:59:49;100220.19;;;-2.68;100.00
21960;BME280;11144;43.030;25.108;2023-02-12T03:01:26;100223.47;;;-2.74;100.00
21960;BME280;11144;43.030;25.108;2023-02-12T03:03:08;100200.72;;;-2.84;100.00
21960;BME280;11144;43.030;25.108;2023-02-12T03:04:44;100224.44;;;-2.70;100.00
21960;BME280;11144;43.030;25.108;2023-02-12T03:06:23;100228.91;;;-2.65;100.00
21960;BME280;11144;43.030;25.108;2023-02-12T03:08:03;100229.13;;;-2.59;100.00
21960;BME280;11144;43.030;25.108;2023-02-12T03:09:42;100225.88;;;-2.52;100.00
21960;BME280;11144;43.030;25.108;2023-02-12T03:11:19;100224.94;;;-2.54;100.00
21960;BME280;11144;43.030;25.108;2023-02-12T03:12:59;100215.53;;;-2.52;100.00
21960;BME280;11144;43.030;25.108;2023-02-12T03:14:36;100226.00;;;-2.49;100.00
21960;BME280;11144;43.030;25.108;2023-02-12T03:16:14;100219.97;;;-2.48;100.00
21960;BME280;11144;43.030;25.108;2023-02-12T03:17:50;100221.72;;;-2.47;100.00
21960;BME280;11144;43.030;25.108;2023-02-12T03:19:28;100216.69;;;-2.42;100.00
21960;BME280;11144;43.030;25.108;2023-02-12T03:21:05;100207.88;;;-2.49;100.00
21960;BME280;11144;43.030;25.108;2023-02-12T03:22:42;100229.13;;;-2.59;100.00
21960;BME280;11144;43.030;25.108;2023-02-12T03:24:23;100212.09;;;-2.51;100.00
21960;BME280;11144;43.030;25.108;2023-02-12T03:26:02;100205.53;;;-2.40;100.00
21960;BME280;11144;43.030;25.108;2023-02-12T03:27:38;100207.47;;;-2.33;100.00
21960;BME280;11144;43.030;25.108;2023-02-12T03:29:14;100204.94;;;-2.31;100.00
21960;BME280;11144;43.030;25.108;2023-02-12T03:30:51;100212.16;;;-2.21;100.00
21960;BME280;11144;43.030;25.108;2023-02-12T03:32:29;100202.75;;;-2.18;100.00
21960;BME280;11144;43.030;25.108;2023-02-12T03:34:10;100210.69;;;-2.12;100.00
21960;BME280;11144;43.030;25.108;2023-02-12T03:35:54;100204.81;;;-2.05;100.00
21960;BME280;11144;43.030;25.108;2023-02-12T03:37:33;100205.81;;;-2.01;100.00
21960;BME280;11144;43.030;25.108;2023-02-12T03:39:11;100194.47;;;-2.05;100.00
21960;BME280;11144;43.030;25.108;2023-02-12T03:40:52;100194.75;;;-1.96;100.00
21960;BME280;11144;43.030;25.108;2023-02-12T03:42:34;100199.06;;;-1.95;100.00
21960;BME280;11144;43.030;25.108;2023-02-12T03:44:14;100193.59;;;-2.05;100.00
21960;BME280;11144;43.030;25.108;2023-02-12T03:45:54;100201.50;;;-2.01;100.00
21960;BME280;11144;43.030;25.108;2023-02-12T03:47:37;100206.94;;;-1.92;100.00
21960;BME280;11144;43.030;25.108;2023-02-12T03:49:19;100195.72;;;-1.91;100.00
21960;BME280;11144;43.030;25.108;2023-02-12T03:50:56;100183.84;;;-1.84;100.00
21960;BME280;11144;43.030;25.108;2023-02-12T03:52:31;100185.38;;;-1.91;100.00
21960;BME280;11144;43.030;25.108;2023-02-12T03:54:05;100185.78;;;-2.07;100.00
21960;BME280;11144;43.030;25.108;2023-02-12T03:55:41;100188.50;;;-2.02;100.00
21960;BME280;11144;43.030;25.108;2023-02-12T03:57:19;100194.66;;;-1.99;100.00
21960;BME280;11144;43.030;25.108;2023-02-12T03:58:52;100184.47;;;-1.93;100.00
21960;BME280;11144;43.030;25.108;2023-02-12T04:00:25;100186.13;;;-1.95;100.00
21960;BME280;11144;43.030;25.108;2023-02-12T04:01:59;100186.31;;;-1.89;100.00
21960;BME280;11144;43.030;25.108;2023-02-12T04:03:32;100180.28;;;-1.88;100.00
21960;BME280;11144;43.030;25.108;2023-02-12T04:05:05;100182.88;;;-1.88;100.00
21960;BME280;11144;43.030;25.108;2023-02-12T04:06:40;100179.38;;;-1.90;100.00
21960;BME280;11144;43.030;25.108;2023-02-12T04:08:13;100188.97;;;-1.86;100.00
21960;BME280;11144;43.030;25.108;2023-02-12T04:09:47;100190.81;;;-1.82;100.00
21960;BME280;11144;43.030;25.108;2023-02-12T04:11:27;100184.47;;;-1.93;100.00
21960;BME280;11144;43.030;25.108;2023-02-12T04:13:10;100187.81;;;-1.97;100.00
21960;BME280;11144;43.030;25.108;2023-02-12T04:14:53;100196.56;;;-1.92;100.00
21960;BME280;11144;43.030;25.108;2023-02-12T04:16:33;100198.41;;;-1.88;100.00
21960;BME280;11144;43.030;25.108;2023-02-12T04:18:13;100182.69;;;-1.94;100.00
21960;BME280;11144;43.030;25.108;2023-02-12T04:19:57;100180.22;;;-2.20;100.00
21960;BME280;11144;43.030;25.108;2023-02-12T04:21:48;100173.50;;;-2.14;100.00
21960;BME280;11144;43.030;25.108;2023-02-12T04:23:38;100180.34;;;-2.16;100.00
21960;BME280;11144;43.030;25.108;2023-02-12T04:25:21;100189.22;;;-2.08;100.00
21960;BME280;11144;43.030;25.108;2023-02-12T04:27:02;100180.78;;;-2.01;100.00
21960;BME280;11144;43.030;25.108;2023-02-12T04:28:46;100188.75;;;-1.93;100.00
21960;BME280;11144;43.030;25.108;2023-02-12T04:30:27;100179.50;;;-1.84;100.00
21960;BME280;11144;43.030;25.108;2023-02-12T04:32:05;100181.44;;;-1.77;100.00
21960;BME280;11144;43.030;25.108;2023-02-12T04:33:46;100176.44;;;-1.71;100.00
21960;BME280;11144;43.030;25.108;2023-02-12T04:35:23;100181.56;;;-1.72;100.00
21960;BME280;11144;43.030;25.108;2023-02-12T04:37:02;100180.84;;;-1.67;100.00
21960;BME280;11144;43.030;25.108;2023-02-12T04:38:39;100185.28;;;-1.63;100.00
21960;BME280;11144;43.030;25.108;2023-02-12T04:40:16;100172.91;;;-1.73;100.00
21960;BME280;11144;43.030;25.108;2023-02-12T04:41:50;100183.44;;;-1.67;100.00
21960;BME280;11144;43.030;25.108;2023-02-12T04:43:27;100196.41;;;-1.67;100.00
21960;BME280;11144;43.030;25.108;2023-02-12T04:45:00;100199.00;;;-1.67;100.00
21960;BME280;11144;43.030;25.108;2023-02-12T04:46:34;100201.53;;;-1.68;100.00
21960;BME280;11144;43.030;25.108;2023-02-12T04:48:06;100207.63;;;-1.68;100.00
21960;BME280;11144;43.030;25.108;2023-02-12T04:49:39;100207.66;;;-1.65;100.00
21960;BME280;11144;43.030;25.108;2023-02-12T04:51:13;100225.22;;;-1.55;100.00
21960;BME280;11144;43.030;25.108;2023-02-12T04:52:47;100224.56;;;-1.48;100.00
21960;BME280;11144;43.030;25.108;2023-02-12T04:54:21;100227.44;;;-1.36;100.00
21960;BME280;11144;43.030;25.108;2023-02-12T04:55:55;100217.31;;;-1.27;100.00
21960;BME280;11144;43.030;25.108;2023-02-12T04:57:27;100238.38;;;-1.15;100.00
21960;BME280;11144;43.030;25.108;2023-02-12T04:59:00;100231.78;;;-1.02;100.00
21960;BME280;11144;43.030;25.108;2023-02-12T05:00:33;100234.91;;;-0.81;100.00
21960;BME280;11144;43.030;25.108;2023-02-12T05:02:06;100244.81;;;-0.64;100.00
21960;BME280;11144;43.030;25.108;2023-02-12T05:03:39;100236.38;;;-0.54;100.00
21960;BME280;11144;43.030;25.108;2023-02-12T05:05:11;100258.28;;;-0.44;100.00
21960;BME280;11144;43.030;25.108;2023-02-12T05:06:45;100248.97;;;-0.35;100.00
21960;BME280;11144;43.030;25.108;2023-02-12T05:08:20;100256.06;;;-0.28;100.00
21960;BME280;11144;43.030;25.108;2023-02-12T05:09:53;100244.84;;;-0.25;100.00
21960;BME280;11144;43.030;25.108;2023-02-12T05:11:27;100250.00;;;-0.27;100.00
21960;BME280;11144;43.030;25.108;2023-02-12T05:13:00;100254.41;;;-0.23;100.00
21960;BME280;11144;43.030;25.108;2023-02-12T05:14:33;100261.34;;;-0.22;100.00
21960;BME280;11144;43.030;25.108;2023-02-12T05:16:07;100237.13;;;-0.21;100.00
21960;BME280;11144;43.030;25.108;2023-02-12T05:17:40;100262.00;;;-0.32;100.00
21960;BME280;11144;43.030;25.108;2023-02-12T05:19:13;100259.47;;;-0.29;100.00
21960;BME280;11144;43.030;25.108;2023-02-12T05:20:54;100277.78;;;-0.23;100.00
21960;BME280;11144;43.030;25.108;2023-02-12T05:22:27;100277.19;;;-0.10;100.00
21960;BME280;11144;43.030;25.108;2023-02-12T05:24:02;100271.25;;;-0.06;100.00
21960;BME280;11144;43.030;25.108;2023-02-12T05:25:36;100262.72;;;0.00;100.00
21960;BME280;11144;43.030;25.108;2023-02-12T05:27:09;100259.34;;;0.49;100.00
21960;BME280;11144;43.030;25.108;2023-02-12T05:28:43;100257.22;;;0.73;100.00
21960;BME280;11144;43.030;25.108;2023-02-12T05:30:16;100272.06;;;0.78;100.00
21960;BME280;11144;43.030;25.108;2023-02-12T05:31:50;100266.00;;;0.79;100.00
21960;BME280;11144;43.030;25.108;2023-02-12T05:33:23;100249.34;;;0.70;100.00
21960;BME280;11144;43.030;25.108;2023-02-12T05:34:55;100276.28;;;0.73;100.00
21960;BME280;11144;43.030;25.108;2023-02-12T05:36:29;100269.34;;;0.72;100.00
21960;BME280;11144;43.030;25.108;2023-02-12T05:38:02;100279.78;;;0.74;100.00
21960;BME280;11144;43.030;25.108;2023-02-12T05:39:35;100275.44;;;0.73;100.00
21960;BME280;11144;43.030;25.108;2023-02-12T05:41:10;100266.63;;;0.66;100.00
21960;BME280;11144;43.030;25.108;2023-02-12T05:42:43;100278.81;;;0.67;100.00
21960;BME280;11144;43.030;25.108;2023-02-12T05:44:16;100282.25;;;0.68;100.00
21960;BME280;11144;43.030;25.108;2023-02-12T05:45:50;100284.03;;;0.69;100.00
21960;BME280;11144;43.030;25.108;2023-02-12T05:47:23;100286.59;;;0.67;100.00
21960;BME280;11144;43.030;25.108;2023-02-12T05:48:56;100290.84;;;0.64;100.00
21960;BME280;11144;43.030;25.108;2023-02-12T05:50:29;100293.84;;;0.83;100.00
21960;BME280;11144;43.030;25.108;2023-02-12T05:52:11;100298.66;;;1.10;100.00
21960;BME280;11144;43.030;25.108;2023-02-12T05:53:45;100295.47;;;1.26;100.00
21960;BME280;11144;43.030;25.108;2023-02-12T05:55:19;100293.91;;;1.37;100.00
21960;BME280;11144;43.030;25.108;2023-02-12T05:56:53;100303.63;;;1.47;100.00
21960;BME280;11144;43.030;25.108;2023-02-12T05:58:26;100307.19;;;1.53;100.00
21960;BME280;11144;43.030;25.108;2023-02-12T05:59:58;100304.63;;;1.55;100.00
21960;BME280;11144;43.030;25.108;2023-02-12T06:01:43;100308.09;;;1.54;100.00
21960;BME280;11144;43.030;25.108;2023-02-12T06:03:17;100308.94;;;1.54;100.00
21960;BME280;11144;43.030;25.108;2023-02-12T06:04:49;100301.16;;;1.56;100.00
21960;BME280;11144;43.030;25.108;2023-02-12T06:06:24;100307.34;;;1.61;100.00
21960;BME280;11144;43.030;25.108;2023-02-12T06:07:56;100306.56;;;1.68;100.00
21960;BME280;11144;43.030;25.108;2023-02-12T06:09:29;100317.03;;;1.71;100.00
21960;BME280;11144;43.030;25.108;2023-02-12T06:11:06;100311.06;;;1.78;100.00
21960;BME280;11144;43.030;25.108;2023-02-12T06:12:38;100312.91;;;1.85;100.00
21960;BME280;11144;43.030;25.108;2023-02-12T06:14:14;100319.16;;;1.96;100.00
21960;BME280;11144;43.030;25.108;2023-02-12T06:15:47;100315.88;;;2.09;100.00
21960;BME280;11144;43.030;25.108;2023-02-12T06:17:20;100319.53;;;2.23;100.00
21960;BME280;11144;43.030;25.108;2023-02-12T06:18:54;100314.47;;;2.35;100.00
21960;BME280;11144;43.030;25.108;2023-02-12T06:20:27;100315.56;;;2.53;100.00
21960;BME280;11144;43.030;25.108;2023-02-12T06:22:00;100318.34;;;2.67;100.00
21960;BME280;11144;43.030;25.108;2023-02-12T06:23:33;100307.06;;;2.71;100.00
21960;BME280;11144;43.030;25.108;2023-02-12T06:25:07;100320.28;;;2.83;100.00
21960;BME280;11144;43.030;25.108;2023-02-12T06:26:42;100329.06;;;2.91;100.00
21960;BME280;11144;43.030;25.108;2023-02-12T06:28:15;100316.97;;;2.99;100.00
21960;BME280;11144;43.030;25.108;2023-02-12T06:29:48;100322.25;;;3.05;100.00
21960;BME280;11144;43.030;25.108;2023-02-12T06:31:23;100327.47;;;3.08;100.00
21960;BME280;11144;43.030;25.108;2023-02-12T06:32:56;100329.31;;;3.15;100.00
21960;BME280;11144;43.030;25.108;2023-02-12T06:34:30;100329.38;;;3.21;100.00
21960;BME280;11144;43.030;25.108;2023-02-12T06:36:03;100331.16;;;3.25;100.00
21960;BME280;11144;43.030;25.108;2023-02-12T06:37:36;100332.06;;;3.31;100.00
21960;BME280;11144;43.030;25.108;2023-02-12T06:39:09;100334.75;;;3.37;100.00
21960;BME280;11144;43.030;25.108;2023-02-12T06:40:43;100335.66;;;3.42;100.00
21960;BME280;11144;43.030;25.108;2023-02-12T06:42:18;100338.31;;;3.47;100.00
21960;BME280;11144;43.030;25.108;2023-02-12T06:43:51;100347.97;;;3.54;100.00
21960;BME280;11144;43.030;25.108;2023-02-12T06:45:24;100336.69;;;3.58;100.00
21960;BME280;11144;43.030;25.108;2023-02-12T06:46:58;100351.53;;;3.63;100.00
21960;BME280;11144;43.030;25.108;2023-02-12T06:48:31;100352.44;;;3.64;100.00
21960;BME280;11144;43.030;25.108;2023-02-12T06:50:05;100335.81;;;3.59;100.00
21960;BME280;11144;43.030;25.108;2023-02-12T06:51:39;100346.28;;;3.62;100.00
21960;BME280;11144;43.030;25.108;2023-02-12T06:53:13;100346.31;;;3.65;100.00
21960;BME280;11144;43.030;25.108;2023-02-12T06:54:46;100340.22;;;3.66;100.00
21960;BME280;11144;43.030;25.108;2023-02-12T06:56:21;100342.81;;;3.62;100.00
21960;BME280;11144;43.030;25.108;2023-02-12T06:57:56;100343.75;;;3.68;100.00
21960;BME280;11144;43.030;25.108;2023-02-12T06:59:29;100347.25;;;3.73;100.00
21960;BME280;11144;43.030;25.108;2023-02-12T07:01:11;100348.16;;;3.74;100.00
21960;BME280;11144;43.030;25.108;2023-02-12T07:02:51;100350.78;;;3.75;100.00
21960;BME280;11144;43.030;25.108;2023-02-12T07:04:24;100349.09;;;3.83;100.00
21960;BME280;11144;43.030;25.108;2023-02-12T07:05:57;100350.91;;;3.93;100.00
21960;BME280;11144;43.030;25.108;2023-02-12T07:07:31;100353.63;;;4.07;100.00
21960;BME280;11144;43.030;25.108;2023-02-12T07:09:05;100356.31;;;4.20;100.00
21960;BME280;11144;43.030;25.108;2023-02-12T07:10:38;100350.25;;;4.27;100.00
21960;BME280;11144;43.030;25.108;2023-02-12T07:12:11;100367.78;;;4.42;100.00
21960;BME280;11144;43.030;25.108;2023-02-12T07:13:46;100358.22;;;4.51;100.00
21960;BME280;11144;43.030;25.108;2023-02-12T07:15:19;100367.84;;;4.57;100.00
21960;BME280;11144;43.030;25.108;2023-02-12T07:16:53;100358.31;;;4.63;100.00
21960;BME280;11144;43.030;25.108;2023-02-12T07:18:28;100355.69;;;4.68;100.00
21960;BME280;11144;43.030;25.108;2023-02-12T07:20:01;100352.25;;;4.78;100.00
21960;BME280;11144;43.030;25.108;2023-02-12T07:21:34;100361.91;;;4.91;100.00
21960;BME280;11144;43.030;25.108;2023-02-12T07:23:10;100358.41;;;4.99;100.00
21960;BME280;11144;43.030;25.108;2023-02-12T07:24:43;100360.19;;;5.03;100.00
21960;BME280;11144;43.030;25.108;2023-02-12T07:26:18;100361.94;;;5.00;100.00
21960;BME280;11144;43.030;25.108;2023-02-12T07:27:51;100363.66;;;4.93;100.00
21960;BME280;11144;43.030;25.108;2023-02-12T07:29:26;100368.03;;;4.94;100.00
21960;BME280;11144;43.030;25.108;2023-02-12T07:30:59;100368.91;;;4.93;100.00
21960;BME280;11144;43.030;25.108;2023-02-12T07:32:32;100367.19;;;5.06;100.00
21960;BME280;11144;43.030;25.108;2023-02-12T07:34:06;100370.69;;;5.08;100.00
21960;BME280;11144;43.030;25.108;2023-02-12T07:35:39;100375.94;;;5.09;100.00
21960;BME280;11144;43.030;25.108;2023-02-12T07:37:13;100375.94;;;5.12;100.00
21960;BME280;11144;43.030;25.108;2023-02-12T07:38:46;100368.94;;;5.16;100.00
21960;BME280;11144;43.030;25.108;2023-02-12T07:40:20;100362.88;;;5.26;100.00
21960;BME280;11144;43.030;25.108;2023-02-12T07:41:55;100369.00;;;5.26;100.00
21960;BME280;11144;43.030;25.108;2023-02-12T07:43:28;100369.88;;;5.31;100.00
21960;BME280;11144;43.030;25.108;2023-02-12T07:45:04;100369.00;;;5.38;100.00
21960;BME280;11144;43.030;25.108;2023-02-12T07:46:40;100373.38;;;5.39;100.00
21960;BME280;11144;43.030;25.108;2023-02-12T07:48:15;100373.38;;;5.42;100.00
21960;BME280;11144;43.030;25.108;2023-02-12T07:49:48;100367.25;;;5.34;100.00
21960;BME280;11144;43.030;25.108;2023-02-12T07:51:22;100363.78;;;5.41;100.00
21960;BME280;11144;43.030;25.108;2023-02-12T07:52:56;100360.28;;;5.42;100.00
21960;BME280;11144;43.030;25.108;2023-02-12T07:54:29;100362.03;;;5.52;100.00
21960;BME280;11144;43.030;25.108;2023-02-12T07:56:07;100368.16;;;5.59;100.00
21960;BME280;11144;43.030;25.108;2023-02-12T07:57:41;100363.81;;;5.59;100.00
21960;BME280;11144;43.030;25.108;2023-02-12T07:59:16;100367.31;;;5.67;100.00
21960;BME280;11144;43.030;25.108;2023-02-12T08:00:51;100367.28;;;5.76;100.00
21960;BME280;11144;43.030;25.108;2023-02-12T08:02:24;100369.06;;;5.77;100.00
21960;BME280;11144;43.030;25.108;2023-02-12T08:03:58;100364.66;;;5.75;100.00
21960;BME280;11144;43.030;25.108;2023-02-12T08:05:37;100365.59;;;5.81;100.00
21960;BME280;11144;43.030;25.108;2023-02-12T08:07:10;100372.56;;;5.94;100.00
21960;BME280;11144;43.030;25.108;2023-02-12T08:08:43;100366.44;;;5.98;100.00
21960;BME280;11144;43.030;25.108;2023-02-12T08:10:17;100376.06;;;6.02;100.00
21960;BME280;11144;43.030;25.108;2023-02-12T08:11:53;100377.84;;;6.03;100.00